sensor_id;sensor_type;location;lat;lon;timestamp;P1;durP1;ratioP1;P2;durP2;ratioP2
62106;SDS011;48087;32.600;-97.100;2023-02-15T00:06:35;2;;;2;;
62106;SDS011;48087;32.600;-97.100;2023-02-15T00:28:56;1;;;1;;
62106;SDS011;48087;32.600;-97.100;2023-02-15T00:51:18;4;;;4;;
62106;SDS011;48087;32.600;-97.100;2023-02-15T01:13:36;4;;;4;;
62106;SDS011;48087;32.600;-97.100;2023-02-15T01:35:56;7;;;7;;
62106;SDS011;48087;32.600;-97.100;2023-02-15T01:58:15;6;;;6;;
62106;SDS011;48087;32.600;-97.100;2023-02-15T02:20:40;8;;;8;;
62106;SDS011;48087;32.600;-97.100;2023-02-15T02:42:54;4;;;4;;
62106;SDS011;48087;32.600;-97.100;2023-02-15T03:05:11;3;;;3;;
62106;SDS011;48087;32.600;-97.100;2023-02-15T03:27:27;4;;;4;;
62106;SDS011;48087;32.600;-97.100;2023-02-15T03:49:44;7;;;7;;
62106;SDS011;48087;32.600;-97.100;2023-02-15T04:12:01;7;;;7;;
62106;SDS011;48087;32.600;-97.100;2023-02-15T04:35:47;5;;;5;;
62106;SDS011;48087;32.600;-97.100;2023-02-15T04:56:34;6;;;6;;
62106;SDS011;48087;32.600;-97.100;2023-02-15T05:18:50;6;;;6;;
62106;SDS011;48087;32.600;-97.100;2023-02-15T05:41:07;7;;;7;;
62106;SDS011;48087;32.600;-97.100;2023-02-15T06:03:22;7;;;7;;
62106;SDS011;48087;32.600;-97.100;2023-02-15T06:25:38;5;;;5;;
62106;SDS011;48087;32.600;-97.100;2023-02-15T06:47:54;6;;;6;;
62106;SDS011;48087;32.600;-97.100;2023-02-15T07:10:09;5;;;5;;
62106;SDS011;48087;32.600;-97.100;2023-02-15T07:32:27;7;;;7;;
62106;SDS011;48087;32.600;-97.100;2023-02-15T07:54:40;5;;;5;;
62106;SDS011;48087;32.600;-97.100;2023-02-15T08:16:55;6;;;6;;
62106;SDS011;48087;32.600;-97.100;2023-02-15T08:39:10;7;;;7;;
62106;SDS011;48087;32.600;-97.100;2023-02-15T09:01:26;7;;;7;;
62106;SDS011;48087;32.600;-97.100;2023-02-15T09:23:40;7;;;7;;
62106;SDS011;48087;32.600;-97.100;2023-02-15T09:46:02;5;;;5;;
62106;SDS011;48087;32.600;-97.100;2023-02-15T10:08:18;7;;;7;;
62106;SDS011;48087;32.600;-97.100;2023-02-15T10:30:27;7;;;7;;
62106;SDS011;48087;32.600;-97.100;2023-02-15T10:52:43;7;;;7;;
62106;SDS011;48087;32.600;-97.100;2023-02-15T11:14:56;7;;;7;;
62106;SDS011;48087;32.600;-97.100;2023-02-15T11:37:12;7;;;7;;
62106;SDS011;48087;32.600;-97.100;2023-02-15T11:59:27;7;;;7;;
62106;SDS011;48087;32.600;-97.100;2023-02-15T12:21:41;8;;;8;;
62106;SDS011;48087;32.600;-97.100;2023-02-15T12:44:05;7;;;7;;
62106;SDS011;48087;32.600;-97.100;2023-02-15T13:06:12;7;;;7;;
62106;SDS011;48087;32.600;-97.100;2023-02-15T13:50:48;10;;;10;;
62106;SDS011;48087;32.600;-97.100;2023-02-15T14:13:04;4;;;4;;
62106;SDS011;48087;32.600;-97.100;2023-02-15T14:35:15;8;;;8;;
62106;SDS011;48087;32.600;-97.100;2023-02-15T14:57:33;8;;;8;;
62106;SDS011;48087;32.600;-97.100;2023-02-15T15:19:57;10;;;10;;
62106;SDS011;48087;32.600;-97.100;2023-02-15T15:42:17;11;;;11;;
62106;SDS011;48087;32.600;-97.100;2023-02-15T16:04:36;19;;;17;;
62106;SDS011;48087;32.600;-97.100;2023-02-15T16:27:14;22;;;19;;
62106;SDS011;48087;32.600;-97.100;2023-02-15T16:49:27;22;;;19;;
62106;SDS011;48087;32.600;-97.100;2023-02-15T17:11:50;26;;;23;;
62106;SDS011;48087;32.600;-97.100;2023-02-15T17:34:40;20;;;17;;
62106;SDS011;48087;32.600;-97.100;2023-02-15T17:56:40;34;;;29;;
62106;SDS011;48087;32.600;-97.100;2023-02-15T18:19:04;30;;;26;;
62106;SDS011;48087;32.600;-97.100;2023-02-15T18:41:27;24;;;21;;
62106;SDS011;48087;32.600;-97.100;2023-02-15T19:03:52;21;;;18;;
62106;SDS011;48087;32.600;-97.100;2023-02-15T19:26:16;23;;;20;;
62106;SDS011;48087;32.600;-97.100;2023-02-15T19:48:41;21;;;18;;
62106;SDS011;48087;32.600;-97.100;2023-02-15T20:33:31;15;;;14;;
62106;SDS011;48087;32.600;-97.100;2023-02-15T20:55:57;14;;;14;;
62106;SDS011;48087;32.600;-97.100;2023-02-15T21:18:22;18;;;16;;
62106;SDS011;48087;32.600;-97.100;2023-02-15T21:40:46;11;;;11;;
62106;SDS011;48087;32.600;-97.100;2023-02-15T22:03:11;20;;;17;;
62106;SDS011;48087;32.600;-97.100;2023-02-15T22:25:35;30;;;26;;
62106;SDS011;48087;32.600;-97.100;2023-02-15T22:47:59;28;;;24;;
62106;SDS011;48087;32.600;-97.100;2023-02-15T23:10:24;31;;;27;;
62106;SDS011;48087;32.600;-97.100;2023-02-15T23:32:47;34;;;29;;
62106;SDS011;48087;32.600;-97.100;2023-02-15T23:55:11;35;;;30;;
